createdAt,value
2022-09-02T00:00:32.189Z,14.23
2022-09-02T00:01:40.383Z,13.50
2022-09-02T00:02:43.349Z,12.30
2022-09-02T00:03:45.129Z,12.93
2022-09-02T00:04:46.637Z,12.20
2022-09-02T00:05:48.219Z,11.87
2022-09-02T00:06:52.087Z,12.67
2022-09-02T00:07:54.973Z,12.20
2022-09-02T00:08:57.034Z,11.97
2022-09-02T00:09:59.839Z,12.67
2022-09-02T00:11:03.893Z,10.80
2022-09-02T00:12:07.937Z,12.00
2022-09-02T00:13:12.317Z,11.20
2022-09-02T00:14:20.668Z,10.70
2022-09-02T00:15:22.913Z,11.00
2022-09-02T00:16:25.720Z,11.10
2022-09-02T00:17:28.056Z,11.40
2022-09-02T00:18:29.998Z,11.03
2022-09-02T00:19:32.111Z,10.73
2022-09-02T00:20:33.691Z,10.00
2022-09-02T00:21:35.778Z,9.77
2022-09-02T00:22:37.512Z,10.37
2022-09-02T00:23:40.357Z,8.60
2022-09-02T00:24:41.945Z,8.07
2022-09-02T00:25:44.838Z,8.53
2022-09-02T00:26:47.204Z,8.67
2022-09-02T00:27:49.171Z,8.40
2022-09-02T00:28:55.895Z,8.10
2022-09-02T00:29:58.205Z,7.00
2022-09-02T00:30:59.729Z,7.20
2022-09-02T00:32:01.445Z,6.90
2022-09-02T00:33:03.690Z,7.00
2022-09-02T00:34:05.574Z,6.53
2022-09-02T00:35:07.740Z,5.57
2022-09-02T00:36:09.781Z,5.93
2022-09-02T00:37:11.376Z,5.53
2022-09-02T00:38:12.983Z,5.33
2022-09-02T00:39:14.692Z,5.60
2022-09-02T00:40:18.626Z,5.17
2022-09-02T00:41:24.228Z,5.70
2022-09-02T00:42:26.329Z,5.60
2022-09-02T00:43:53.048Z,5.27
2022-09-02T00:44:54.618Z,5.13
2022-09-02T00:45:56.187Z,5.10
2022-09-02T00:46:57.765Z,4.83
2022-09-02T00:47:59.367Z,4.63
2022-09-02T00:49:25.896Z,4.60
2022-09-02T00:50:31.083Z,5.10
2022-09-02T00:51:46.437Z,5.30
2022-09-02T00:52:53.627Z,5.10
2022-09-02T00:53:55.418Z,5.27
2022-09-02T00:55:02.414Z,4.70
2022-09-02T00:56:04.180Z,5.60
2022-09-02T00:57:11.965Z,5.43
2022-09-02T00:58:22.489Z,5.57
2022-09-02T00:59:34.923Z,5.33
2022-09-02T01:00:42.555Z,5.23
2022-09-02T01:01:44.648Z,4.57
2022-09-02T01:02:52.660Z,5.20
2022-09-02T01:03:54.304Z,4.90
2022-09-02T01:04:56.719Z,5.50
2022-09-02T01:05:59.615Z,4.90
2022-09-02T01:07:01.171Z,4.50
2022-09-02T01:08:07.211Z,4.70
2022-09-02T01:09:14.705Z,4.77
2022-09-02T01:10:19.911Z,4.40
2022-09-02T01:11:22.669Z,4.70
2022-09-02T01:12:26.223Z,4.57
2022-09-02T01:13:35.272Z,5.00
2022-09-02T01:14:36.773Z,4.30
2022-09-02T01:16:02.451Z,4.57
2022-09-02T01:17:05.201Z,4.90
2022-09-02T01:18:10.503Z,5.00
2022-09-02T01:19:23.146Z,4.13
2022-09-02T01:20:26.317Z,3.90
2022-09-02T01:21:27.895Z,3.70
2022-09-02T01:22:31.825Z,3.90
2022-09-02T01:23:34.750Z,3.90
2022-09-02T01:24:36.522Z,3.47
2022-09-02T01:25:38.244Z,4.00
2022-09-02T01:26:39.912Z,4.47
2022-09-02T01:27:41.911Z,4.00
2022-09-02T01:28:43.689Z,4.10
2022-09-02T01:29:46.316Z,3.80
2022-09-02T01:30:51.508Z,3.50
2022-09-02T01:31:53.668Z,3.10
2022-09-02T01:32:55.797Z,3.50
2022-09-02T01:33:58.068Z,4.00
2022-09-02T01:35:00.960Z,4.10
2022-09-02T01:36:04.593Z,3.80
2022-09-02T01:37:07.067Z,3.63
2022-09-02T01:38:08.790Z,4.37
2022-09-02T01:39:12.251Z,4.13
2022-09-02T01:40:17.138Z,3.80
2022-09-02T01:41:18.814Z,4.47
2022-09-02T01:42:21.531Z,3.70
2022-09-02T01:43:25.947Z,4.50
2022-09-02T01:44:27.598Z,3.90
2022-09-02T01:45:30.138Z,4.10
2022-09-02T01:46:32.805Z,3.97
2022-09-02T01:47:36.145Z,4.10
2022-09-02T01:48:37.839Z,4.27
2022-09-02T01:49:40.921Z,4.20
2022-09-02T01:50:47.898Z,3.60
2022-09-02T01:51:49.742Z,4.30
2022-09-02T01:52:51.304Z,4.40
2022-09-02T01:53:52.809Z,3.80
2022-09-02T01:54:55.069Z,4.30
2022-09-02T01:55:57.031Z,3.67
2022-09-02T01:56:58.552Z,4.00
2022-09-02T01:58:00.720Z,4.10
2022-09-02T01:59:04.900Z,3.93
2022-09-02T02:00:09.680Z,4.00
2022-09-02T02:01:12.058Z,4.10
2022-09-02T02:02:13.979Z,4.10
2022-09-02T02:03:16.676Z,4.00
2022-09-02T02:04:18.291Z,4.70
2022-09-02T02:05:20.203Z,4.20
2022-09-02T02:06:21.771Z,5.13
2022-09-02T02:07:23.733Z,4.53
2022-09-02T02:08:25.566Z,3.87
2022-09-02T02:09:27.412Z,4.77
2022-09-02T02:10:29.499Z,5.00
2022-09-02T02:11:31.013Z,4.80
2022-09-02T02:12:32.533Z,5.00
2022-09-02T02:13:34.317Z,5.30
2022-09-02T02:14:36.113Z,4.90
2022-09-02T02:15:39.641Z,5.27
2022-09-02T02:16:41.376Z,4.97
2022-09-02T02:17:43.093Z,5.30
2022-09-02T02:18:44.674Z,5.20
2022-09-02T02:19:46.182Z,4.60
2022-09-02T02:20:47.839Z,5.07
2022-09-02T02:21:49.581Z,5.07
2022-09-02T02:22:51.134Z,5.40
2022-09-02T02:23:53.153Z,5.10
2022-09-02T02:24:54.801Z,4.53
2022-09-02T02:25:56.346Z,4.13
2022-09-02T02:26:57.825Z,4.60
2022-09-02T02:27:59.424Z,4.50
2022-09-02T02:29:02.040Z,3.70
2022-09-02T02:30:06.495Z,4.40
2022-09-02T02:31:08.056Z,3.97
2022-09-02T02:32:10.098Z,3.70
2022-09-02T02:33:13.569Z,3.67
2022-09-02T02:34:15.236Z,3.97
2022-09-02T02:35:19.071Z,4.07
2022-09-02T02:36:21.018Z,3.80
2022-09-02T02:37:25.552Z,3.77
2022-09-02T02:38:37.885Z,4.10
2022-09-02T02:39:41.185Z,3.90
2022-09-02T02:40:42.797Z,3.40
2022-09-02T02:41:45.107Z,4.53
2022-09-02T02:42:47.824Z,4.47
2022-09-02T02:43:49.503Z,4.53
2022-09-02T02:44:51.105Z,5.00
2022-09-02T02:45:54.284Z,4.07
2022-09-02T02:46:55.846Z,4.53
2022-09-02T02:47:58.291Z,5.00
2022-09-02T02:49:00.011Z,4.60
2022-09-02T02:50:01.503Z,5.00
2022-09-02T02:51:04.434Z,5.40
2022-09-02T02:52:06.478Z,4.03
2022-09-02T02:53:08.696Z,4.73
2022-09-02T02:54:14.502Z,4.90
2022-09-02T02:55:16.825Z,4.50
2022-09-02T02:56:18.697Z,5.20
2022-09-02T02:57:20.341Z,4.23
2022-09-02T02:58:21.972Z,4.20
2022-09-02T02:59:23.610Z,4.30
2022-09-02T03:00:28.589Z,4.57
2022-09-02T03:01:31.404Z,4.33
2022-09-02T03:02:33.284Z,3.60
2022-09-02T03:03:35.121Z,4.70
2022-09-02T03:04:39.825Z,3.77
2022-09-02T03:05:41.453Z,3.60
2022-09-02T03:06:43.012Z,4.30
2022-09-02T03:07:44.660Z,4.03
2022-09-02T03:08:48.875Z,4.10
2022-09-02T03:09:52.650Z,4.80
2022-09-02T03:10:56.162Z,4.27
2022-09-02T03:11:58.325Z,4.87
2022-09-02T03:13:00.962Z,4.40
2022-09-02T03:14:02.794Z,4.33
2022-09-02T03:15:05.220Z,4.27
2022-09-02T03:16:07.147Z,4.20
2022-09-02T03:17:08.967Z,4.40
2022-09-02T03:18:10.550Z,4.53
2022-09-02T03:19:14.142Z,4.57
2022-09-02T03:20:16.910Z,4.23
2022-09-02T03:21:19.121Z,5.03
2022-09-02T03:22:20.727Z,4.60
2022-09-02T03:23:22.342Z,5.27
2022-09-02T03:24:24.029Z,4.80
2022-09-02T03:25:31.205Z,4.50
2022-09-02T03:26:35.163Z,4.37
2022-09-02T03:27:38.769Z,4.47
2022-09-02T03:28:40.469Z,4.87
2022-09-02T03:29:42.220Z,5.40
2022-09-02T03:30:45.611Z,4.67
2022-09-02T03:31:47.200Z,4.70
2022-09-02T03:32:49.132Z,4.50
2022-09-02T03:33:51.006Z,4.40
2022-09-02T03:34:52.530Z,4.63
2022-09-02T03:35:54.102Z,5.13
2022-09-02T03:36:55.733Z,4.37
2022-09-02T03:37:57.456Z,4.30
2022-09-02T03:38:59.775Z,4.33
2022-09-02T03:40:07.313Z,3.93
2022-09-02T03:41:08.891Z,5.03
2022-09-02T03:42:13.332Z,4.43
2022-09-02T03:43:21.982Z,4.83
2022-09-02T03:44:23.645Z,4.47
2022-09-02T03:45:25.228Z,4.83
2022-09-02T03:46:27.086Z,4.50
2022-09-02T03:47:30.064Z,4.43
2022-09-02T03:48:34.594Z,4.30
2022-09-02T03:49:36.480Z,4.00
2022-09-02T03:50:41.079Z,5.00
2022-09-02T03:51:43.568Z,4.13
2022-09-02T03:52:45.313Z,4.47
2022-09-02T03:53:47.055Z,4.37
2022-09-02T03:54:48.916Z,4.63
2022-09-02T03:55:50.772Z,4.10
2022-09-02T03:56:52.705Z,4.33
2022-09-02T03:57:54.970Z,4.40
2022-09-02T03:58:57.609Z,4.53
2022-09-02T04:00:01.863Z,4.90
2022-09-02T04:01:05.421Z,4.50
2022-09-02T04:02:07.531Z,4.20
2022-09-02T04:03:09.216Z,4.70
2022-09-02T04:04:11.038Z,4.57
2022-09-02T04:05:15.969Z,4.80
2022-09-02T04:06:20.843Z,4.73
2022-09-02T04:07:22.331Z,4.80
2022-09-02T04:08:24.775Z,5.50
2022-09-02T04:09:26.473Z,5.27
2022-09-02T04:10:28.233Z,4.50
2022-09-02T04:11:30.167Z,5.13
2022-09-02T04:12:32.366Z,5.30
2022-09-02T04:13:34.236Z,6.00
2022-09-02T04:14:35.868Z,6.13
2022-09-02T04:15:44.334Z,4.97
2022-09-02T04:17:42.862Z,5.50
2022-09-02T04:19:41.153Z,5.20
2022-09-02T04:21:10.886Z,5.73
2022-09-02T04:22:12.390Z,4.87
2022-09-02T04:23:13.965Z,5.23
2022-09-02T04:24:15.592Z,4.90
2022-09-02T04:25:17.639Z,5.60
2022-09-02T04:26:20.656Z,5.50
2022-09-02T04:27:22.443Z,5.10
2022-09-02T04:28:24.883Z,4.80
2022-09-02T04:29:26.824Z,5.27
2022-09-02T04:30:28.445Z,5.70
2022-09-02T04:31:31.679Z,5.50
2022-09-02T04:32:38.329Z,6.07
2022-09-02T04:33:42.132Z,5.90
2022-09-02T04:34:43.790Z,6.27
2022-09-02T04:35:49.289Z,5.87
2022-09-02T04:36:50.846Z,5.33
2022-09-02T04:37:52.372Z,4.90
2022-09-02T04:38:54.404Z,4.77
2022-09-02T04:39:57.815Z,4.90
2022-09-02T04:40:59.451Z,5.27
2022-09-02T04:42:01.048Z,5.30
2022-09-02T04:43:03.772Z,5.10
2022-09-02T04:44:05.625Z,5.00
2022-09-02T04:45:08.317Z,6.27
2022-09-02T04:46:15.403Z,5.27
2022-09-02T04:47:17.395Z,5.90
2022-09-02T04:48:19.805Z,5.60
2022-09-02T04:49:21.424Z,5.57
2022-09-02T04:50:22.993Z,5.80
2022-09-02T04:51:26.462Z,5.50
2022-09-02T04:52:27.995Z,4.90
2022-09-02T04:53:30.251Z,5.20
2022-09-02T04:54:32.353Z,5.17
2022-09-02T04:55:34.141Z,5.20
2022-09-02T04:56:35.997Z,5.70
2022-09-02T04:57:37.798Z,5.70
2022-09-02T04:58:39.499Z,5.07
2022-09-02T04:59:41.073Z,5.63
2022-09-02T05:00:43.022Z,5.30
2022-09-02T05:01:45.097Z,5.80
2022-09-02T05:02:47.015Z,5.50
2022-09-02T05:03:49.601Z,5.60
2022-09-02T05:04:52.421Z,5.87
2022-09-02T05:06:02.014Z,5.87
2022-09-02T05:07:03.883Z,5.63
2022-09-02T05:08:05.399Z,5.67
2022-09-02T05:09:08.531Z,6.27
2022-09-02T05:10:12.216Z,5.87
2022-09-02T05:11:22.154Z,6.30
2022-09-02T05:12:26.123Z,6.30
2022-09-02T05:13:28.131Z,5.93
2022-09-02T05:14:31.078Z,6.63
2022-09-02T05:15:33.617Z,6.10
2022-09-02T05:16:40.580Z,7.60
2022-09-02T05:17:42.692Z,6.90
2022-09-02T05:18:44.980Z,6.50
2022-09-02T05:19:46.859Z,5.50
2022-09-02T05:20:48.357Z,5.67
2022-09-02T05:21:51.342Z,6.77
2022-09-02T05:22:52.894Z,7.37
2022-09-02T05:23:55.129Z,7.40
2022-09-02T05:24:57.332Z,6.53
2022-09-02T05:25:58.840Z,8.10
2022-09-02T05:27:00.373Z,6.17
2022-09-02T05:28:02.032Z,5.83
2022-09-02T05:29:08.454Z,5.90
2022-09-02T05:30:10.444Z,6.20
2022-09-02T05:31:15.439Z,6.23
2022-09-02T05:32:17.090Z,6.30
2022-09-02T05:33:18.604Z,5.33
2022-09-02T05:34:22.726Z,5.80
2022-09-02T05:35:24.513Z,6.50
2022-09-02T05:36:26.079Z,6.47
2022-09-02T05:37:27.613Z,6.20
2022-09-02T05:38:29.505Z,5.83
2022-09-02T05:39:31.198Z,6.27
2022-09-02T05:40:34.408Z,5.80
2022-09-02T05:41:36.153Z,6.77
2022-09-02T05:42:39.571Z,7.30
2022-09-02T05:43:42.261Z,6.60
2022-09-02T05:44:47.176Z,6.80
2022-09-02T05:45:50.869Z,6.43
2022-09-02T05:46:52.608Z,6.37
2022-09-02T05:47:54.107Z,7.43
2022-09-02T05:49:06.322Z,7.97
2022-09-02T05:50:08.226Z,6.63
2022-09-02T05:51:09.710Z,6.50
2022-09-02T05:52:13.482Z,7.03
2022-09-02T05:53:15.114Z,6.37
2022-09-02T05:54:35.903Z,7.60
2022-09-02T05:55:37.532Z,7.13
2022-09-02T05:56:44.997Z,6.87
2022-09-02T05:57:46.997Z,8.03
2022-09-02T05:58:49.528Z,9.00
2022-09-02T05:59:56.081Z,8.20
2022-09-02T06:00:58.574Z,8.10
2022-09-02T06:02:00.352Z,8.77
2022-09-02T06:03:02.230Z,7.70
2022-09-02T06:04:05.656Z,6.37
2022-09-02T06:05:12.019Z,5.53
2022-09-02T06:06:13.794Z,6.37
2022-09-02T06:07:16.810Z,5.47
2022-09-02T06:08:18.413Z,6.20
2022-09-02T06:09:22.558Z,5.60
2022-09-02T06:10:24.092Z,5.47
2022-09-02T06:11:28.254Z,5.83
2022-09-02T06:12:33.085Z,4.70
2022-09-02T06:13:37.414Z,5.03
2022-09-02T06:14:41.799Z,4.80
2022-09-02T06:15:44.332Z,5.27
2022-09-02T06:16:46.533Z,5.87
2022-09-02T06:17:48.031Z,4.70
2022-09-02T06:18:50.164Z,4.70
2022-09-02T06:19:53.972Z,5.20
2022-09-02T06:20:55.913Z,6.73
2022-09-02T06:21:57.437Z,5.40
2022-09-02T06:22:58.992Z,6.10
2022-09-02T06:24:00.654Z,6.50
2022-09-02T06:25:02.431Z,7.30
2022-09-02T06:26:04.708Z,6.20
2022-09-02T06:27:07.307Z,6.53
2022-09-02T06:28:10.104Z,6.20
2022-09-02T06:29:12.514Z,5.90
2022-09-02T06:30:14.078Z,5.63
2022-09-02T06:31:18.382Z,6.50
2022-09-02T06:32:21.661Z,5.77
2022-09-02T06:33:23.722Z,4.67
2022-09-02T06:34:27.158Z,2.77
2022-09-02T06:35:28.859Z,3.10
2022-09-02T06:36:30.914Z,3.73
2022-09-02T06:37:32.510Z,3.07
2022-09-02T06:38:39.784Z,3.30
2022-09-02T06:39:46.111Z,3.03
2022-09-02T06:40:53.593Z,2.70
2022-09-02T06:41:55.922Z,2.57
2022-09-02T06:42:57.468Z,1.97
2022-09-02T06:44:02.476Z,1.67
2022-09-02T06:45:04.422Z,2.00
2022-09-02T06:46:22.922Z,2.00
2022-09-02T06:47:24.613Z,1.60
2022-09-02T06:48:26.744Z,1.90
2022-09-02T06:49:28.749Z,1.57
2022-09-02T06:50:30.767Z,1.50
2022-09-02T06:51:35.779Z,1.80
2022-09-02T06:52:37.894Z,1.47
2022-09-02T06:53:40.321Z,1.50
2022-09-02T06:54:41.967Z,1.63
2022-09-02T06:55:45.471Z,1.30
2022-09-02T06:56:49.695Z,1.20
2022-09-02T06:57:51.493Z,1.70
2022-09-02T06:58:53.418Z,1.60
2022-09-02T07:00:01.831Z,1.30
2022-09-02T07:01:04.565Z,2.40
2022-09-02T07:02:06.204Z,1.90
2022-09-02T07:03:28.171Z,1.97
2022-09-02T07:04:48.271Z,2.70
2022-09-02T07:06:10.777Z,2.70
2022-09-02T07:07:12.830Z,1.73
2022-09-02T07:08:14.505Z,1.60
2022-09-02T07:09:19.830Z,1.60
2022-09-02T07:10:21.519Z,1.27
2022-09-02T07:11:24.082Z,1.77
2022-09-02T07:12:27.318Z,1.00
2022-09-02T07:13:28.972Z,1.20
2022-09-02T07:14:30.856Z,1.20
2022-09-02T07:15:32.711Z,1.70
2022-09-02T07:16:44.117Z,2.50
2022-09-02T07:17:45.806Z,1.60
2022-09-02T07:18:47.474Z,1.60
2022-09-02T07:19:50.094Z,2.03
2022-09-02T07:20:51.948Z,2.00
2022-09-02T07:21:53.814Z,1.97
2022-09-02T07:22:56.373Z,1.97
2022-09-02T07:23:59.631Z,2.03
2022-09-02T07:25:01.209Z,1.70
2022-09-02T07:26:02.961Z,2.00
2022-09-02T07:27:05.930Z,1.17
2022-09-02T07:28:09.017Z,1.73
2022-09-02T07:29:11.457Z,1.97
2022-09-02T07:30:13.746Z,1.97
2022-09-02T07:31:16.493Z,2.10
2022-09-02T07:32:18.704Z,2.30
2022-09-02T07:33:21.571Z,2.07
2022-09-02T07:34:25.988Z,1.73
2022-09-02T07:35:28.617Z,1.20
2022-09-02T07:36:30.373Z,1.27
2022-09-02T07:37:34.639Z,1.80
2022-09-02T07:38:36.981Z,1.53
2022-09-02T07:39:38.720Z,1.63
2022-09-02T07:40:41.647Z,1.90
2022-09-02T07:41:47.418Z,1.50
2022-09-02T07:42:50.215Z,1.57
2022-09-02T07:43:53.016Z,1.13
2022-09-02T07:44:56.006Z,0.90
2022-09-02T07:45:58.686Z,1.00
2022-09-02T07:47:00.325Z,1.00
2022-09-02T07:48:02.204Z,1.00
2022-09-02T07:49:09.316Z,1.13
2022-09-02T07:50:19.617Z,1.07
2022-09-02T07:51:22.140Z,1.00
2022-09-02T07:52:23.713Z,0.80
2022-09-02T07:53:26.242Z,1.20
2022-09-02T07:54:27.962Z,0.87
2022-09-02T07:55:31.153Z,0.87
2022-09-02T07:56:33.109Z,0.80
2022-09-02T07:57:34.800Z,0.87
2022-09-02T07:58:37.056Z,1.00
2022-09-02T07:59:38.685Z,1.10
2022-09-02T08:00:41.950Z,0.80
2022-09-02T08:02:45.950Z,0.80
2022-09-02T08:03:47.566Z,0.90
2022-09-02T08:04:49.315Z,0.97
2022-09-02T08:05:51.698Z,0.80
2022-09-02T08:06:54.698Z,0.80
2022-09-02T08:07:56.312Z,1.07
2022-09-02T08:08:58.133Z,1.00
2022-09-02T08:10:01.039Z,1.00
2022-09-02T08:11:03.964Z,0.97
2022-09-02T08:12:06.129Z,1.03
2022-09-02T08:13:07.951Z,0.80
2022-09-02T08:14:12.207Z,1.10
2022-09-02T08:15:15.586Z,0.93
2022-09-02T08:16:18.941Z,1.10
2022-09-02T08:17:20.804Z,1.00
2022-09-02T08:18:22.889Z,1.07
2022-09-02T08:19:24.925Z,1.30
2022-09-02T08:20:26.632Z,1.10
2022-09-02T08:21:28.190Z,1.03
2022-09-02T08:22:35.156Z,1.07
2022-09-02T08:23:38.097Z,0.97
2022-09-02T08:24:39.821Z,0.90
2022-09-02T08:25:42.411Z,1.27
2022-09-02T08:26:44.111Z,1.20
2022-09-02T08:27:46.163Z,0.93
2022-09-02T08:28:47.805Z,0.80
2022-09-02T08:29:52.447Z,1.03
2022-09-02T08:30:55.251Z,1.03
2022-09-02T08:31:56.944Z,1.00
2022-09-02T08:32:58.495Z,0.90
2022-09-02T08:34:03.217Z,1.10
2022-09-02T08:35:10.772Z,0.93
2022-09-02T08:36:14.964Z,1.23
2022-09-02T08:37:19.209Z,0.97
2022-09-02T08:38:22.343Z,1.00
2022-09-02T08:39:24.515Z,0.93
2022-09-02T08:40:36.441Z,0.80
2022-09-02T08:42:09.339Z,1.10
2022-09-02T08:43:29.335Z,1.07
2022-09-02T08:44:34.922Z,0.90
2022-09-02T08:45:38.853Z,0.87
2022-09-02T08:46:40.918Z,0.80
2022-09-02T08:47:47.513Z,1.40
2022-09-02T08:49:08.258Z,1.17
2022-09-02T08:50:14.780Z,0.97
2022-09-02T08:51:24.332Z,0.90
2022-09-02T08:52:40.200Z,0.77
2022-09-02T08:54:07.369Z,0.90
2022-09-02T08:55:25.508Z,0.80
2022-09-02T08:56:28.268Z,0.97
2022-09-02T08:57:31.976Z,1.40
2022-09-02T08:58:39.220Z,1.03
2022-09-02T09:00:58.011Z,0.80
2022-09-02T09:02:24.451Z,1.10
2022-09-02T09:03:38.435Z,0.83
2022-09-02T09:04:45.791Z,1.00
2022-09-02T09:06:00.477Z,1.00
2022-09-02T09:07:27.215Z,1.23
2022-09-02T09:08:49.324Z,1.10
2022-09-02T09:10:09.787Z,0.80
2022-09-02T09:11:25.186Z,0.80
2022-09-02T09:12:37.713Z,0.93
2022-09-02T09:14:02.881Z,1.00
2022-09-02T09:15:25.533Z,0.90
2022-09-02T09:16:56.193Z,1.00
2022-09-02T09:18:05.231Z,0.80
2022-09-02T09:19:27.339Z,0.90
2022-09-02T09:20:33.051Z,0.90
2022-09-02T09:21:34.753Z,1.00
2022-09-02T09:22:39.279Z,0.90
2022-09-02T09:23:41.625Z,1.03
2022-09-02T09:24:45.703Z,1.23
2022-09-02T09:25:49.425Z,0.67
2022-09-02T09:26:52.920Z,0.80
2022-09-02T09:27:54.487Z,1.17
2022-09-02T09:28:56.496Z,0.90
2022-09-02T09:29:58.040Z,0.70
2022-09-02T09:31:01.151Z,0.90
2022-09-02T09:32:05.388Z,0.90
2022-09-02T09:33:07.315Z,1.10
2022-09-02T09:34:12.588Z,0.90
2022-09-02T09:35:17.219Z,1.07
2022-09-02T09:36:18.775Z,1.10
2022-09-02T09:37:59.335Z,0.80
2022-09-02T09:39:16.809Z,1.13
2022-09-02T09:40:21.375Z,1.27
2022-09-02T09:41:28.928Z,0.93
2022-09-02T09:42:36.393Z,0.70
2022-09-02T09:43:37.950Z,0.70
2022-09-02T09:44:46.691Z,0.90
2022-09-02T09:45:51.452Z,0.80
2022-09-02T09:47:05.667Z,1.27
2022-09-02T09:48:16.320Z,1.47
2022-09-02T09:49:26.425Z,1.00
2022-09-02T09:50:28.369Z,0.60
2022-09-02T09:51:29.873Z,0.80
2022-09-02T09:52:51.303Z,0.90
2022-09-02T09:53:52.924Z,1.13
2022-09-02T09:55:12.657Z,1.17
2022-09-02T09:56:21.673Z,0.80
2022-09-02T09:57:24.554Z,0.93
2022-09-02T09:58:41.889Z,0.83
2022-09-02T09:59:47.575Z,1.13
2022-09-02T10:00:49.438Z,1.00
2022-09-02T10:01:52.007Z,1.17
2022-09-02T10:02:58.194Z,0.90
2022-09-02T10:04:32.249Z,1.00
2022-09-02T10:05:40.391Z,1.00
2022-09-02T10:06:43.665Z,0.90
2022-09-02T10:08:20.696Z,1.10
2022-09-02T10:09:35.753Z,0.90
2022-09-02T10:10:37.377Z,1.17
2022-09-02T10:11:38.920Z,1.00
2022-09-02T10:12:40.472Z,0.80
2022-09-02T10:13:42.800Z,1.07
2022-09-02T10:14:47.173Z,0.63
2022-09-02T10:16:06.159Z,1.00
2022-09-02T10:17:26.047Z,1.17
2022-09-02T10:18:40.199Z,1.00
2022-09-02T10:19:51.148Z,0.87
2022-09-02T10:21:14.948Z,0.90
2022-09-02T10:22:40.039Z,0.90
2022-09-02T10:23:59.988Z,0.73
2022-09-02T10:25:18.919Z,1.17
2022-09-02T10:26:32.114Z,1.07
2022-09-02T10:27:47.052Z,0.80
2022-09-02T10:29:07.094Z,0.93
2022-09-02T10:30:20.064Z,0.93
2022-09-02T10:31:41.168Z,1.00
2022-09-02T10:32:54.573Z,0.80
2022-09-02T10:34:14.259Z,1.07
2022-09-02T10:35:38.785Z,0.90
2022-09-02T10:36:49.145Z,0.90
2022-09-02T10:38:05.672Z,0.80
2022-09-02T10:39:36.749Z,0.70
2022-09-02T10:40:56.121Z,1.07
2022-09-02T10:42:10.519Z,0.90
2022-09-02T10:43:35.282Z,0.80
2022-09-02T10:44:59.139Z,0.83
2022-09-02T10:46:01.354Z,0.90
2022-09-02T10:47:12.662Z,1.20
2022-09-02T10:48:51.327Z,0.93
2022-09-02T10:50:02.023Z,1.40
2022-09-02T10:51:20.761Z,1.10
2022-09-02T10:52:40.591Z,0.90
2022-09-02T10:54:09.598Z,0.97
2022-09-02T10:55:45.655Z,0.80
2022-09-02T10:57:05.873Z,0.80
2022-09-02T10:58:20.629Z,0.73
2022-09-02T10:59:30.584Z,1.00
2022-09-02T11:00:36.309Z,1.10
2022-09-02T11:01:44.942Z,0.97
2022-09-02T11:03:11.135Z,0.87
2022-09-02T11:04:27.989Z,0.80
2022-09-02T11:05:42.200Z,0.80
2022-09-02T11:07:02.054Z,0.70
2022-09-02T11:08:11.154Z,0.90
2022-09-02T11:09:31.130Z,0.70
2022-09-02T11:10:47.323Z,0.63
2022-09-02T11:12:00.485Z,1.10
2022-09-02T11:13:14.478Z,0.80
2022-09-02T11:14:25.310Z,0.80
2022-09-02T11:15:50.014Z,0.93
2022-09-02T11:16:51.683Z,1.50
2022-09-02T11:18:17.892Z,0.83
2022-09-02T11:19:39.528Z,1.03
2022-09-02T11:21:06.942Z,0.90
2022-09-02T11:22:36.047Z,0.68
2022-09-02T11:23:52.861Z,0.95
2022-09-02T11:25:10.476Z,0.98
2022-09-02T11:26:24.822Z,1.13
2022-09-02T11:27:45.675Z,0.87
2022-09-02T11:28:59.745Z,0.90
2022-09-02T11:30:31.885Z,1.03
2022-09-02T11:31:42.414Z,1.13
2022-09-02T11:32:50.543Z,1.33
2022-09-02T11:34:22.844Z,1.67
2022-09-02T11:35:27.493Z,1.00
2022-09-02T11:36:30.976Z,1.00
2022-09-02T11:37:41.530Z,0.90
2022-09-02T11:38:50.770Z,1.00
2022-09-02T11:40:17.072Z,0.90
2022-09-02T11:41:47.706Z,1.00
2022-09-02T11:43:21.909Z,1.37
2022-09-02T11:44:59.226Z,1.40
2022-09-02T11:46:14.380Z,0.95
2022-09-02T11:47:26.936Z,0.98
2022-09-02T11:48:59.618Z,1.10
2022-09-02T11:50:40.291Z,0.90
2022-09-02T11:51:58.951Z,1.38
2022-09-02T11:53:28.407Z,0.80
2022-09-02T11:54:39.269Z,0.93
2022-09-02T11:55:47.185Z,0.98
2022-09-02T11:56:56.875Z,1.02
2022-09-02T11:57:59.191Z,1.13
2022-09-02T11:59:00.856Z,1.00
2022-09-02T12:00:10.731Z,0.95
2022-09-02T12:01:15.036Z,1.00
2022-09-02T12:02:34.822Z,1.00
2022-09-02T12:03:50.127Z,0.85
2022-09-02T12:05:29.926Z,1.17
2022-09-02T12:06:32.910Z,1.10
2022-09-02T12:07:48.005Z,1.10
2022-09-02T12:08:50.562Z,1.37
2022-09-02T12:09:55.208Z,1.02
2022-09-02T12:11:00.426Z,0.98
2022-09-02T12:12:02.048Z,1.35
2022-09-02T12:13:04.034Z,1.35
2022-09-02T12:14:31.775Z,1.10
2022-09-02T12:15:38.539Z,0.90
2022-09-02T12:16:59.031Z,1.00
2022-09-02T12:18:31.802Z,1.10
2022-09-02T12:19:45.444Z,0.98
2022-09-02T12:20:51.128Z,1.00
2022-09-02T12:22:18.050Z,1.17
2022-09-02T12:23:48.448Z,1.10
2022-09-02T12:24:53.782Z,1.05
2022-09-02T12:26:02.766Z,1.00
2022-09-02T12:27:09.557Z,1.23
2022-09-02T12:28:19.261Z,1.05
2022-09-02T12:29:25.803Z,1.30
2022-09-02T12:31:10.331Z,1.10
2022-09-02T12:32:12.296Z,1.00
2022-09-02T12:33:14.521Z,1.10
2022-09-02T12:34:24.855Z,0.88
2022-09-02T12:35:50.027Z,1.30
2022-09-02T12:36:58.831Z,1.30
2022-09-02T12:38:12.507Z,1.00
2022-09-02T12:39:23.247Z,0.90
2022-09-02T12:40:31.358Z,1.10
2022-09-02T12:41:42.650Z,1.20
2022-09-02T12:42:46.776Z,0.98
2022-09-02T12:44:14.425Z,0.80
2022-09-02T12:45:29.156Z,1.30
2022-09-02T12:46:43.947Z,0.98
2022-09-02T12:47:55.263Z,0.80
2022-09-02T12:49:11.855Z,1.33
2022-09-02T12:50:32.463Z,1.13
2022-09-02T12:52:02.382Z,1.10
2022-09-02T12:53:21.089Z,1.08
2022-09-02T12:54:41.359Z,1.00
2022-09-02T12:55:58.051Z,1.00
2022-09-02T12:56:59.935Z,1.20
2022-09-02T12:58:19.872Z,1.17
2022-09-02T12:59:29.360Z,1.05
2022-09-02T13:00:49.133Z,0.93
2022-09-02T13:02:10.420Z,0.95
2022-09-02T13:03:30.857Z,1.20
2022-09-02T13:05:00.764Z,0.90
2022-09-02T13:06:17.367Z,1.10
2022-09-02T13:07:57.035Z,1.45
2022-09-02T13:09:01.476Z,1.05
2022-09-02T13:10:18.655Z,0.90
2022-09-02T13:11:45.024Z,1.00
2022-09-02T13:13:18.398Z,1.17
2022-09-02T13:14:42.503Z,1.25
2022-09-02T13:16:04.304Z,0.90
2022-09-02T13:17:36.518Z,1.20
2022-09-02T13:18:50.014Z,1.27
2022-09-02T13:20:09.839Z,1.10
2022-09-02T13:21:31.172Z,1.08
2022-09-02T13:23:09.650Z,1.13
2022-09-02T13:24:36.226Z,1.05
2022-09-02T13:26:04.949Z,1.00
2022-09-02T13:27:41.922Z,1.42
2022-09-02T13:29:08.100Z,0.90
2022-09-02T13:30:46.210Z,1.20
2022-09-02T13:32:04.937Z,1.17
2022-09-02T13:33:08.784Z,1.00
2022-09-02T13:34:13.357Z,1.13
2022-09-02T13:35:26.183Z,1.20
2022-09-02T13:36:38.470Z,1.10
2022-09-02T13:37:45.496Z,1.10
2022-09-02T13:38:47.243Z,1.02
2022-09-02T13:39:48.793Z,1.20
2022-09-02T13:40:50.671Z,0.90
2022-09-02T13:41:53.042Z,1.35
2022-09-02T13:43:01.452Z,1.20
2022-09-02T13:44:11.359Z,1.80
2022-09-02T13:45:16.606Z,1.00
2022-09-02T13:46:18.157Z,1.00
2022-09-02T13:47:20.772Z,2.08
2022-09-02T13:48:28.074Z,1.17
2022-09-02T13:49:37.769Z,1.95
2022-09-02T13:50:44.094Z,1.27
2022-09-02T13:51:47.353Z,1.52
2022-09-02T13:54:28.617Z,1.00
2022-09-02T13:55:31.688Z,0.90
2022-09-02T13:56:33.544Z,1.00
2022-09-02T13:57:36.119Z,1.63
2022-09-02T13:58:42.659Z,5.10
2022-09-02T13:59:50.051Z,1.85
2022-09-02T14:00:52.227Z,0.87
2022-09-02T14:01:54.173Z,1.40
2022-09-02T14:03:21.065Z,1.15
2022-09-02T14:04:23.571Z,0.90
2022-09-02T14:05:25.984Z,2.15
2022-09-02T14:06:37.286Z,1.13
2022-09-02T14:07:46.487Z,0.90
2022-09-02T14:08:49.114Z,0.70
2022-09-02T14:09:52.045Z,0.80
2022-09-02T14:10:54.570Z,1.10
2022-09-02T14:11:58.290Z,1.10
2022-09-02T14:13:02.123Z,1.38
2022-09-02T14:14:04.236Z,1.10
2022-09-02T14:15:08.006Z,1.40
2022-09-02T14:16:34.067Z,1.00
2022-09-02T14:17:36.009Z,0.90
2022-09-02T14:18:37.574Z,1.10
2022-09-02T14:19:39.237Z,1.15
2022-09-02T14:20:56.665Z,0.90
2022-09-02T14:21:58.646Z,0.90
2022-09-02T14:23:00.859Z,0.93
2022-09-02T14:24:03.058Z,1.00
2022-09-02T14:25:14.171Z,1.00
2022-09-02T14:26:44.406Z,0.87
2022-09-02T14:27:54.589Z,1.00
2022-09-02T14:28:56.309Z,0.90
2022-09-02T14:29:58.540Z,1.03
2022-09-02T14:31:00.146Z,0.90
2022-09-02T14:32:10.772Z,1.70
2022-09-02T14:33:18.324Z,1.00
2022-09-02T14:34:47.061Z,0.93
2022-09-02T14:36:07.289Z,1.30
2022-09-02T14:37:18.255Z,0.90
2022-09-02T14:38:24.602Z,1.30
2022-09-02T14:39:26.304Z,1.03
2022-09-02T14:40:35.601Z,0.80
2022-09-02T14:41:45.297Z,1.00
2022-09-02T14:42:55.234Z,0.80
2022-09-02T14:44:08.201Z,1.13
2022-09-02T14:45:12.015Z,1.13
2022-09-02T14:46:33.785Z,0.97
2022-09-02T14:47:39.093Z,1.00
2022-09-02T14:48:41.096Z,1.10
2022-09-02T14:49:49.254Z,1.05
2022-09-02T14:51:02.414Z,0.77
2022-09-02T14:52:22.112Z,0.90
2022-09-02T14:53:24.233Z,1.10
2022-09-02T14:54:42.976Z,0.90
2022-09-02T14:55:50.315Z,1.02
2022-09-02T14:56:53.176Z,1.23
2022-09-02T14:58:04.049Z,1.08
2022-09-02T14:59:05.556Z,1.08